createdAt,value
2018-04-10T00:01:39.158Z,11.40
2018-04-10T00:04:07.202Z,11.40
2018-04-10T00:06:35.262Z,11.20
2018-04-10T00:09:03.307Z,11.20
2018-04-10T00:11:31.329Z,11.10
2018-04-10T00:14:00.101Z,11.00
2018-04-10T00:16:28.125Z,10.90
2018-04-10T00:18:56.138Z,11.00
2018-04-10T00:21:24.889Z,10.90
2018-04-10T00:23:52.916Z,10.90
2018-04-10T00:26:21.701Z,11.00
2018-04-10T00:28:49.742Z,10.90
2018-04-10T00:31:17.741Z,10.90
2018-04-10T00:33:45.757Z,10.80
2018-04-10T00:36:13.742Z,10.80
2018-04-10T00:38:42.541Z,10.80
2018-04-10T00:41:10.553Z,10.70
2018-04-10T00:43:38.534Z,10.80
2018-04-10T00:46:06.560Z,10.70
2018-04-10T00:48:34.569Z,10.70
2018-04-10T00:51:02.568Z,10.80
2018-04-10T00:53:37.323Z,10.60
2018-04-10T00:56:05.344Z,10.60
2018-04-10T00:58:33.344Z,10.60
2018-04-10T01:01:01.337Z,10.60
2018-04-10T01:03:29.341Z,10.50
2018-04-10T01:05:58.108Z,10.50
2018-04-10T01:08:26.110Z,10.40
2018-04-10T01:10:54.102Z,10.50
2018-04-10T01:13:22.866Z,10.40
2018-04-10T01:15:50.854Z,10.40
2018-04-10T01:18:18.862Z,10.50
2018-04-10T01:20:47.650Z,10.10
2018-04-10T01:23:15.644Z,10.10
2018-04-10T01:25:43.645Z,10.00
2018-04-10T01:28:11.635Z,10.10
2018-04-10T01:30:39.633Z,10.00
2018-04-10T01:33:07.642Z,10.00
2018-04-10T01:35:35.658Z,10.10
2018-04-10T01:38:03.638Z,10.10
2018-04-10T01:40:31.626Z,10.20
2018-04-10T01:43:00.393Z,10.20
2018-04-10T01:45:28.386Z,10.20
2018-04-10T01:47:56.392Z,10.00
2018-04-10T01:50:25.141Z,9.80
2018-04-10T01:52:53.142Z,9.70
2018-04-10T01:55:21.130Z,9.50
2018-04-10T01:57:49.122Z,9.40
2018-04-10T02:00:17.117Z,9.40
2018-04-10T02:02:45.878Z,9.20
2018-04-10T02:05:13.961Z,9.10
2018-04-10T02:07:42.765Z,9.00
2018-04-10T02:10:28.453Z,8.90
2018-04-10T02:12:56.462Z,9.00
2018-04-10T02:15:24.440Z,9.00
2018-04-10T02:17:52.455Z,8.90
2018-04-10T02:20:21.219Z,9.00
2018-04-10T02:22:49.214Z,8.90
2018-04-10T02:25:17.222Z,8.90
2018-04-10T02:27:45.973Z,9.00
2018-04-10T02:30:13.970Z,8.90
2018-04-10T02:32:41.955Z,9.00
2018-04-10T02:35:09.957Z,9.10
2018-04-10T02:37:37.962Z,9.00
2018-04-10T02:40:06.816Z,9.00
2018-04-10T02:42:34.819Z,9.00
2018-04-10T02:45:02.801Z,9.10
2018-04-10T02:47:30.798Z,9.30
2018-04-10T02:49:59.559Z,9.30
2018-04-10T02:52:27.555Z,9.30
2018-04-10T02:54:55.622Z,9.30
2018-04-10T02:57:23.626Z,9.20
2018-04-10T02:59:51.611Z,9.00
2018-04-10T03:02:19.620Z,8.90
2018-04-10T03:04:48.374Z,9.10
2018-04-10T03:07:16.378Z,9.00
2018-04-10T03:09:44.390Z,9.10
2018-04-10T03:12:13.154Z,9.10
2018-04-10T03:14:41.574Z,9.10
2018-04-10T03:17:09.638Z,9.00
2018-04-10T03:19:37.633Z,9.10
2018-04-10T03:22:06.399Z,9.00
2018-04-10T03:24:34.398Z,9.00
2018-04-10T03:27:02.393Z,9.10
2018-04-10T03:29:30.392Z,9.00
2018-04-10T03:31:59.151Z,8.80
2018-04-10T03:34:27.142Z,8.70
2018-04-10T03:36:55.145Z,8.80
2018-04-10T03:39:23.138Z,8.80
2018-04-10T03:41:51.898Z,8.90
2018-04-10T03:44:19.914Z,8.80
2018-04-10T03:46:48.678Z,8.90
2018-04-10T03:49:16.673Z,8.80
2018-04-10T03:51:44.674Z,8.80
2018-04-10T03:54:12.663Z,8.90
2018-04-10T03:56:40.670Z,8.80
2018-04-10T03:59:08.668Z,8.80
2018-04-10T04:01:36.674Z,8.80
2018-04-10T04:04:04.678Z,8.80
2018-04-10T04:06:32.669Z,8.80
2018-04-10T04:09:00.694Z,8.70
2018-04-10T04:11:29.418Z,8.70
2018-04-10T04:13:57.414Z,8.70
2018-04-10T04:16:37.226Z,8.70
2018-04-10T04:19:17.326Z,8.70
2018-04-10T04:22:10.879Z,8.60
2018-04-10T04:24:39.338Z,8.60
2018-04-10T04:27:07.338Z,8.30
2018-04-10T04:29:36.090Z,8.10
2018-04-10T04:32:04.111Z,8.00
2018-04-10T04:34:32.091Z,7.90
2018-04-10T04:37:00.087Z,8.00
2018-04-10T04:39:28.843Z,8.20
2018-04-10T04:41:56.842Z,8.10
2018-04-10T04:44:25.006Z,8.20
2018-04-10T04:46:52.998Z,8.00
2018-04-10T04:49:20.977Z,8.10
2018-04-10T04:51:48.988Z,8.20
2018-04-10T04:54:16.981Z,8.20
2018-04-10T04:56:45.770Z,8.00
2018-04-10T04:59:13.768Z,7.90
2018-04-10T05:01:42.541Z,8.10
2018-04-10T05:04:10.591Z,8.00
2018-04-10T05:06:38.582Z,8.00
2018-04-10T05:09:06.603Z,7.90
2018-04-10T05:11:34.610Z,7.70
2018-04-10T05:14:02.619Z,7.50
2018-04-10T05:16:30.621Z,7.60
2018-04-10T05:18:58.618Z,7.70
2018-04-10T05:21:26.610Z,7.70
2018-04-10T05:23:54.621Z,7.80
2018-04-10T05:26:22.602Z,7.90
2018-04-10T05:28:50.611Z,8.00
2018-04-10T05:31:18.614Z,8.00
2018-04-10T05:33:46.617Z,8.00
2018-04-10T05:36:14.656Z,8.00
2018-04-10T05:38:42.658Z,8.00
2018-04-10T05:41:10.686Z,8.10
2018-04-10T05:43:38.643Z,8.10
2018-04-10T05:46:06.641Z,8.20
2018-04-10T05:48:34.645Z,8.30
2018-04-10T05:51:03.394Z,8.70
2018-04-10T05:53:31.410Z,8.70
2018-04-10T05:55:59.397Z,8.90
2018-04-10T05:58:28.173Z,9.10
2018-04-10T06:00:56.187Z,9.10
2018-04-10T06:03:24.944Z,9.40
2018-04-10T06:05:52.959Z,9.30
2018-04-10T06:08:20.942Z,9.50
2018-04-10T06:10:49.719Z,9.60
2018-04-10T06:13:17.702Z,9.50
2018-04-10T06:15:45.712Z,9.80
2018-04-10T06:18:13.705Z,9.80
2018-04-10T06:20:42.473Z,10.00
2018-04-10T06:23:10.487Z,9.90
2018-04-10T06:25:39.249Z,10.00
2018-04-10T06:28:07.254Z,9.90
2018-04-10T06:30:35.250Z,9.90
2018-04-10T06:33:04.034Z,10.10
2018-04-10T06:35:32.034Z,10.00
2018-04-10T06:38:00.802Z,10.20
2018-04-10T06:40:28.826Z,10.10
2018-04-10T06:42:56.834Z,10.30
2018-04-10T06:45:24.858Z,10.40
2018-04-10T06:47:52.870Z,10.60
2018-04-10T06:50:21.868Z,10.80
2018-04-10T06:52:50.015Z,10.70
2018-04-10T06:55:18.013Z,10.90
2018-04-10T06:57:46.022Z,11.00
2018-04-10T07:00:14.787Z,11.40
2018-04-10T07:02:42.791Z,11.30
2018-04-10T07:05:10.784Z,11.50
2018-04-10T07:07:39.592Z,11.60
2018-04-10T07:10:08.375Z,11.70
2018-04-10T07:12:36.388Z,11.70
2018-04-10T07:15:05.213Z,11.80
2018-04-10T07:17:33.209Z,11.70
2018-04-10T07:20:01.236Z,11.80
2018-04-10T07:22:29.238Z,11.90
2018-04-10T07:24:57.246Z,12.10
2018-04-10T07:27:25.287Z,12.20
2018-04-10T07:29:54.051Z,12.40
2018-04-10T07:32:22.087Z,12.30
2018-04-10T07:34:51.524Z,12.60
2018-04-10T07:37:19.746Z,12.50
2018-04-10T07:39:47.762Z,12.70
2018-04-10T07:42:16.539Z,12.90
2018-04-10T07:44:44.555Z,12.80
2018-04-10T07:47:13.318Z,12.90
2018-04-10T07:49:41.334Z,12.80
2018-04-10T07:52:10.100Z,13.10
2018-04-10T07:54:38.170Z,13.10
2018-04-10T07:57:06.182Z,13.30
2018-04-10T07:59:35.323Z,13.60
2018-04-10T08:02:04.098Z,13.80
2018-04-10T08:04:32.866Z,13.90
2018-04-10T08:07:00.878Z,13.90
2018-04-10T08:09:29.649Z,14.10
2018-04-10T08:11:57.653Z,14.10
2018-04-10T08:14:25.654Z,14.20
2018-04-10T08:16:54.444Z,14.30
2018-04-10T08:19:22.439Z,14.30
2018-04-10T08:21:51.221Z,14.60
2018-04-10T08:24:19.362Z,14.60
2018-04-10T08:26:47.351Z,14.40
2018-04-10T08:29:15.347Z,14.50
2018-04-10T08:31:43.350Z,14.70
2018-04-10T08:34:12.878Z,14.80
2018-04-10T08:36:40.871Z,14.80
2018-04-10T08:39:09.658Z,15.40
2018-04-10T08:41:37.663Z,15.30
2018-04-10T08:44:06.451Z,15.70
2018-04-10T08:46:35.222Z,15.70
2018-04-10T08:49:03.222Z,15.60
2018-04-10T08:51:31.243Z,15.90
2018-04-10T08:53:59.242Z,16.00
2018-04-10T08:56:27.259Z,16.10
2018-04-10T08:58:55.249Z,16.30
2018-04-10T09:01:24.766Z,16.60
2018-04-10T09:03:52.915Z,16.60
2018-04-10T09:06:20.917Z,16.70
2018-04-10T09:08:48.926Z,16.80
2018-04-10T09:11:18.449Z,16.50
2018-04-10T09:13:46.456Z,16.50
2018-04-10T09:16:14.481Z,16.80
2018-04-10T09:18:42.466Z,17.00
2018-04-10T09:21:10.487Z,17.30
2018-04-10T09:23:39.265Z,17.40
2018-04-10T09:26:07.285Z,17.30
2018-04-10T09:28:35.281Z,17.70
2018-04-10T09:31:03.316Z,17.90
2018-04-10T09:33:31.342Z,18.10
2018-04-10T09:35:59.337Z,18.20
2018-04-10T09:38:27.350Z,18.50
2018-04-10T09:40:55.363Z,18.40
2018-04-10T09:43:24.159Z,18.80
2018-04-10T09:45:52.154Z,18.70
2018-04-10T09:48:20.937Z,19.10
2018-04-10T09:50:48.994Z,19.00
2018-04-10T09:53:17.018Z,19.10
2018-04-10T09:55:45.800Z,19.50
2018-04-10T09:58:13.810Z,19.50
2018-04-10T10:00:42.580Z,19.90
2018-04-10T10:03:10.613Z,19.90
2018-04-10T10:05:38.638Z,20.00
2018-04-10T10:08:08.270Z,20.40
2018-04-10T10:10:36.291Z,20.50
2018-04-10T10:13:04.312Z,20.50
2018-04-10T10:15:32.325Z,20.70
2018-04-10T10:18:00.334Z,20.50
2018-04-10T10:20:28.355Z,20.40
2018-04-10T10:22:56.372Z,20.30
2018-04-10T10:25:24.384Z,20.30
2018-04-10T10:27:52.386Z,20.40
2018-04-10T10:30:20.420Z,20.60
2018-04-10T10:32:48.446Z,20.80
2018-04-10T10:35:16.448Z,21.10
2018-04-10T10:37:44.469Z,21.30
2018-04-10T10:40:13.999Z,21.90
2018-04-10T10:42:42.007Z,21.90
2018-04-10T10:45:10.035Z,22.20
2018-04-10T10:47:38.030Z,22.20
2018-04-10T10:50:06.075Z,22.30
2018-04-10T10:52:34.065Z,22.30
2018-04-10T10:55:02.086Z,22.50
2018-04-10T10:57:30.103Z,22.70
2018-04-10T10:59:58.102Z,22.60
2018-04-10T11:02:26.122Z,22.60
2018-04-10T11:04:54.137Z,22.70
2018-04-10T11:07:22.161Z,22.60
2018-04-10T11:09:50.158Z,22.50
2018-04-10T11:12:18.179Z,22.50
2018-04-10T11:14:46.967Z,22.70
2018-04-10T11:17:14.970Z,22.60
2018-04-10T11:19:43.746Z,22.80
2018-04-10T11:22:11.755Z,22.80
2018-04-10T11:24:40.526Z,22.80
2018-04-10T11:27:08.550Z,22.70
2018-04-10T11:29:36.578Z,22.80
2018-04-10T11:32:04.599Z,22.90
2018-04-10T11:34:32.614Z,22.80
2018-04-10T11:37:00.631Z,22.90
2018-04-10T11:39:28.647Z,22.90
2018-04-10T11:41:57.419Z,22.80
2018-04-10T11:44:25.809Z,22.70
2018-04-10T11:46:53.890Z,22.70
2018-04-10T11:49:21.919Z,22.80
2018-04-10T11:51:50.687Z,23.40
2018-04-10T11:54:18.758Z,23.30
2018-04-10T11:56:46.762Z,23.90
2018-04-10T11:59:14.755Z,24.30
2018-04-10T12:01:42.774Z,24.20
2018-04-10T12:04:10.792Z,23.80
2018-04-10T12:06:38.820Z,23.80
2018-04-10T12:09:07.599Z,23.50
2018-04-10T12:11:36.367Z,23.70
2018-04-10T12:14:04.395Z,23.60
2018-04-10T12:16:32.395Z,24.10
2018-04-10T12:19:00.407Z,24.50
2018-04-10T12:21:28.410Z,24.70
2018-04-10T12:23:56.413Z,24.90
2018-04-10T12:26:24.435Z,24.50
2018-04-10T12:28:52.436Z,23.90
2018-04-10T12:31:20.446Z,24.20
2018-04-10T12:33:48.696Z,24.40
2018-04-10T12:36:16.782Z,24.80
2018-04-10T12:38:44.798Z,25.10
2018-04-10T12:41:12.815Z,25.00
2018-04-10T12:43:41.602Z,23.70
2018-04-10T12:46:09.619Z,23.70
2018-04-10T12:48:37.632Z,23.20
2018-04-10T12:51:05.634Z,23.30
2018-04-10T12:53:33.640Z,24.00
2018-04-10T12:56:02.413Z,24.80
2018-04-10T12:58:30.449Z,24.80
2018-04-10T13:00:58.458Z,25.50
2018-04-10T13:03:26.479Z,25.40
2018-04-10T13:05:54.475Z,25.50
2018-04-10T13:08:23.260Z,26.50
2018-04-10T13:10:51.279Z,26.50
2018-04-10T13:13:19.287Z,26.70
2018-04-10T13:15:47.359Z,26.90
2018-04-10T13:18:15.370Z,26.70
2018-04-10T13:20:43.410Z,26.40
2018-04-10T13:23:11.421Z,26.50
2018-04-10T13:25:39.593Z,26.30
2018-04-10T13:28:08.350Z,26.60
2018-04-10T13:30:36.334Z,26.60
2018-04-10T13:33:04.360Z,26.70
2018-04-10T13:35:32.374Z,26.20
2018-04-10T13:38:00.367Z,26.20
2018-04-10T13:40:28.378Z,25.80
2018-04-10T13:42:57.155Z,25.60
2018-04-10T13:45:25.167Z,25.50
2018-04-10T13:47:53.925Z,25.60
2018-04-10T13:50:21.942Z,25.50
2018-04-10T13:52:50.747Z,25.00
2018-04-10T13:55:18.730Z,24.90
2018-04-10T13:57:47.522Z,24.00
2018-04-10T14:00:16.311Z,23.90
2018-04-10T14:02:44.330Z,23.80
2018-04-10T14:05:12.327Z,23.70
2018-04-10T14:07:40.383Z,23.60
2018-04-10T14:10:08.406Z,23.50
2018-04-10T14:12:36.411Z,23.40
2018-04-10T14:15:04.432Z,23.20
2018-04-10T14:17:33.194Z,22.90
2018-04-10T14:20:01.216Z,22.90
2018-04-10T14:22:29.982Z,22.50
2018-04-10T14:24:57.999Z,22.40
2018-04-10T14:27:26.782Z,22.50
2018-04-10T14:29:54.783Z,22.40
2018-04-10T14:32:23.558Z,22.00
2018-04-10T14:34:51.567Z,22.00
2018-04-10T14:37:20.354Z,21.40
2018-04-10T14:39:48.394Z,21.40
2018-04-10T14:42:16.424Z,21.30
2018-04-10T14:44:44.414Z,20.90
2018-04-10T14:47:13.674Z,19.90
2018-04-10T14:49:41.689Z,19.80
2018-04-10T14:52:09.699Z,20.00
2018-04-10T14:54:38.481Z,20.30
2018-04-10T14:57:06.491Z,20.30
2018-04-10T14:59:35.423Z,20.30
2018-04-10T15:02:03.414Z,20.00
2018-04-10T15:04:31.414Z,19.80
2018-04-10T15:06:59.420Z,19.60
2018-04-10T15:09:28.196Z,19.40
2018-04-10T15:11:56.209Z,19.40
2018-04-10T15:14:24.361Z,19.40
2018-04-10T15:16:52.520Z,19.30
2018-04-10T15:19:20.527Z,19.40
2018-04-10T15:21:48.534Z,19.50
2018-04-10T15:24:16.542Z,19.70
2018-04-10T15:26:45.323Z,19.70
2018-04-10T15:29:13.328Z,19.70
2018-04-10T15:31:41.346Z,19.80
2018-04-10T15:34:09.372Z,19.90
2018-04-10T15:36:37.414Z,20.00
2018-04-10T15:39:06.071Z,20.00
2018-04-10T15:41:34.852Z,19.80
2018-04-10T15:44:03.654Z,19.80
2018-04-10T15:46:31.660Z,19.70
2018-04-10T15:49:00.414Z,19.50
2018-04-10T15:51:28.446Z,19.50
2018-04-10T15:53:56.930Z,19.50
2018-04-10T15:56:25.716Z,19.30
2018-04-10T15:58:53.727Z,19.30
2018-04-10T16:01:21.734Z,19.20
2018-04-10T16:03:49.774Z,19.00
2018-04-10T16:06:18.542Z,18.80
2018-04-10T16:08:46.558Z,18.80
2018-04-10T16:11:15.320Z,18.70
2018-04-10T16:13:43.570Z,18.70
2018-04-10T16:16:11.577Z,18.80
2018-04-10T16:18:39.582Z,18.90
2018-04-10T16:21:07.608Z,18.90
2018-04-10T16:23:35.642Z,18.70
2018-04-10T16:26:03.635Z,18.60
2018-04-10T16:28:31.622Z,18.40
2018-04-10T16:30:59.642Z,18.30
2018-04-10T16:33:27.649Z,18.30
2018-04-10T16:35:55.650Z,18.30
2018-04-10T16:38:24.138Z,18.30
2018-04-10T16:40:52.130Z,18.30
2018-04-10T16:43:20.558Z,18.20
2018-04-10T16:45:49.319Z,18.20
2018-04-10T16:48:17.338Z,18.10
2018-04-10T16:50:46.108Z,18.10
2018-04-10T16:53:14.165Z,18.00
2018-04-10T16:55:42.142Z,18.00
2018-04-10T16:58:10.150Z,17.90
2018-04-10T17:00:38.939Z,17.60
2018-04-10T17:03:06.955Z,17.60
2018-04-10T17:05:34.970Z,17.60
2018-04-10T17:08:03.734Z,17.40
2018-04-10T17:10:31.746Z,17.30
2018-04-10T17:13:00.517Z,17.30
2018-04-10T17:15:28.530Z,17.20
2018-04-10T17:17:57.294Z,17.20
2018-04-10T17:20:25.303Z,17.20
2018-04-10T17:22:53.306Z,17.10
2018-04-10T17:25:22.091Z,17.00
2018-04-10T17:27:50.877Z,17.00
2018-04-10T17:30:18.870Z,16.90
2018-04-10T17:32:46.879Z,16.90
2018-04-10T17:35:14.870Z,17.00
2018-04-10T17:37:42.874Z,16.90
2018-04-10T17:40:10.882Z,16.80
2018-04-10T17:42:38.892Z,16.90
2018-04-10T17:45:07.688Z,16.80
2018-04-10T17:47:35.683Z,16.70
2018-04-10T17:50:04.473Z,16.80
2018-04-10T17:52:33.240Z,16.70
2018-04-10T17:55:01.257Z,16.70
2018-04-10T17:57:30.023Z,16.70
2018-04-10T17:59:58.832Z,16.60
2018-04-10T18:02:26.853Z,16.60
2018-04-10T18:04:55.608Z,16.60
2018-04-10T18:07:23.622Z,16.50
2018-04-10T18:09:51.632Z,16.60
2018-04-10T18:12:19.649Z,16.60
2018-04-10T18:14:47.671Z,16.50
2018-04-10T18:17:16.469Z,16.40
2018-04-10T18:19:45.360Z,16.30
2018-04-10T18:22:14.897Z,16.30
2018-04-10T18:24:43.702Z,16.30
2018-04-10T18:27:12.467Z,16.30
2018-04-10T18:29:40.476Z,16.20
2018-04-10T18:32:08.471Z,16.20
2018-04-10T18:34:37.251Z,15.90
2018-04-10T18:37:05.267Z,15.80
2018-04-10T18:39:34.022Z,15.70
2018-04-10T18:42:02.036Z,15.70
2018-04-10T18:44:30.790Z,15.70
2018-04-10T18:46:58.794Z,15.60
2018-04-10T18:49:26.806Z,15.60
2018-04-10T18:51:55.559Z,15.30
2018-04-10T18:54:23.562Z,15.20
2018-04-10T18:56:51.591Z,15.20
2018-04-10T18:59:19.610Z,15.20
2018-04-10T19:01:47.654Z,15.10
2018-04-10T19:04:16.128Z,15.20
2018-04-10T19:06:44.213Z,15.10
2018-04-10T19:09:12.969Z,14.90
2018-04-10T19:11:40.989Z,14.80
2018-04-10T19:14:08.986Z,14.90
2018-04-10T19:16:37.754Z,14.90
2018-04-10T19:19:05.779Z,14.90
2018-04-10T19:21:33.779Z,14.90
2018-04-10T19:24:01.785Z,15.00
2018-04-10T19:26:29.782Z,15.00
2018-04-10T19:28:57.823Z,15.00
2018-04-10T19:31:25.835Z,15.10
2018-04-10T19:33:54.139Z,15.10
2018-04-10T19:36:22.151Z,15.10
2018-04-10T19:38:50.937Z,14.60
2018-04-10T19:41:18.950Z,14.60
2018-04-10T19:43:46.985Z,14.50
2018-04-10T19:46:14.974Z,14.60
2018-04-10T19:48:42.999Z,14.50
2018-04-10T19:51:11.837Z,14.20
2018-04-10T19:53:39.857Z,14.20
2018-04-10T19:56:07.855Z,14.20
2018-04-10T19:58:36.658Z,13.80
2018-04-10T20:01:05.434Z,13.60
2018-04-10T20:03:33.489Z,13.60
2018-04-10T20:06:01.503Z,13.10
2018-04-10T20:08:29.515Z,12.80
2018-04-10T20:10:58.275Z,12.50
2018-04-10T20:13:26.274Z,12.30
2018-04-10T20:15:55.029Z,12.10
2018-04-10T20:18:23.991Z,12.10
2018-04-10T20:20:52.765Z,11.90
2018-04-10T20:23:20.761Z,11.80
2018-04-10T20:25:49.536Z,11.70
2018-04-10T20:28:17.529Z,11.60
2018-04-10T20:30:45.539Z,11.60
2018-04-10T20:33:14.309Z,11.40
2018-04-10T20:35:42.320Z,11.30
2018-04-10T20:38:11.126Z,11.10
2018-04-10T20:40:39.103Z,11.00
2018-04-10T20:43:08.203Z,10.90
2018-04-10T20:45:36.210Z,10.90
2018-04-10T20:48:04.962Z,10.90
2018-04-10T20:50:32.958Z,10.80
2018-04-10T20:53:02.861Z,10.70
2018-04-10T20:55:30.894Z,10.60
2018-04-10T20:57:58.861Z,10.60
2018-04-10T21:00:26.865Z,10.70
2018-04-10T21:02:55.639Z,10.70
2018-04-10T21:05:23.886Z,10.70
2018-04-10T21:07:51.854Z,10.70
2018-04-10T21:10:19.858Z,10.70
2018-04-10T21:12:47.870Z,10.70
2018-04-10T21:15:15.886Z,10.70
2018-04-10T21:17:44.653Z,10.70
2018-04-10T21:20:12.666Z,10.60
2018-04-10T21:22:41.435Z,10.80
2018-04-10T21:25:09.450Z,10.70
2018-04-10T21:27:38.242Z,10.70
2018-04-10T21:30:07.018Z,10.70
2018-04-10T21:32:35.025Z,10.60
2018-04-10T21:35:03.790Z,10.70
2018-04-10T21:37:31.837Z,10.60
2018-04-10T21:39:59.826Z,10.70
2018-04-10T21:42:27.844Z,10.80
2018-04-10T21:44:55.842Z,10.70
2018-04-10T21:47:23.838Z,10.70
2018-04-10T21:49:52.615Z,10.70
2018-04-10T21:52:20.616Z,10.60
2018-04-10T21:54:49.402Z,10.80
2018-04-10T21:57:17.426Z,10.80
2018-04-10T21:59:45.414Z,10.90
2018-04-10T22:02:13.426Z,10.90
2018-04-10T22:04:41.430Z,10.90
2018-04-10T22:07:09.426Z,10.90
2018-04-10T22:09:37.447Z,11.00
2018-04-10T22:12:05.454Z,10.90
2018-04-10T22:14:33.457Z,11.00
2018-04-10T22:17:01.458Z,11.10
2018-04-10T22:19:29.469Z,11.20
2018-04-10T22:21:57.472Z,11.20
2018-04-10T22:24:25.492Z,11.20
2018-04-10T22:26:53.499Z,11.20
2018-04-10T22:29:22.256Z,11.10
2018-04-10T22:31:50.262Z,11.00
2018-04-10T22:34:18.235Z,11.00
2018-04-10T22:36:47.011Z,11.00
2018-04-10T22:39:15.022Z,10.90
2018-04-10T22:41:43.946Z,11.10
2018-04-10T22:44:11.946Z,11.00
2018-04-10T22:46:39.952Z,11.20
2018-04-10T22:49:07.975Z,11.20
2018-04-10T22:51:36.750Z,11.30
2018-04-10T22:54:05.572Z,11.30
2018-04-10T22:56:34.326Z,11.20
2018-04-10T22:59:02.353Z,11.10
2018-04-10T23:01:30.367Z,11.10
2018-04-10T23:03:58.379Z,11.20
2018-04-10T23:06:26.386Z,11.20
2018-04-10T23:08:54.395Z,11.10
2018-04-10T23:11:23.179Z,10.80
2018-04-10T23:13:51.179Z,10.80
2018-04-10T23:16:19.190Z,10.80
2018-04-10T23:18:47.978Z,10.80
2018-04-10T23:21:16.769Z,10.80
2018-04-10T23:23:45.531Z,10.80
2018-04-10T23:26:13.535Z,10.80
2018-04-10T23:28:41.558Z,11.00
2018-04-10T23:31:09.581Z,10.90
2018-04-10T23:33:37.581Z,10.90
2018-04-10T23:36:05.587Z,10.80
2018-04-10T23:38:33.586Z,10.70
2018-04-10T23:41:02.375Z,10.60
2018-04-10T23:43:30.386Z,10.60
2018-04-10T23:45:59.148Z,10.80
2018-04-10T23:48:27.154Z,10.80
2018-04-10T23:50:55.138Z,10.90
2018-04-10T23:53:23.931Z,10.50
2018-04-10T23:55:51.948Z,10.40
2018-04-10T23:58:19.947Z,10.40
